Time;durP1;ratioP1;P1;durP2;ratioP2;P2;SDS_P1;SDS_P2;PMS_P1;PMS_P2;Temp;Humidity;BMP_temperature;BMP_pressure;BME280_temperature;BME280_humidity;BME280_pressure;Samples;Min_cycle;Max_cycle;Signal;HPM_P1;HPM_P2
2022/06/16 00:00:28;;;;;;;2.85;0.28;;;;;;;12.56;45.29;102057.38;5007973;28;20072;-74
2022/06/16 00:02:54;;;;;;;4.60;0.30;;;;;;;12.66;45.17;102053.59;4989120;28;20451;-72
2022/06/16 00:05:23;;;;;;;1.50;0.40;;;;;;;12.65;45.11;102052.72;4993585;28;20123;-72
2022/06/16 00:07:49;;;;;;;1.02;0.30;;;;;;;12.54;45.17;102048.72;4991712;28;20052;-74
2022/06/16 00:10:17;;;;;;;3.90;0.52;;;;;;;12.44;45.47;102035.84;4994014;28;20541;-70
2022/06/16 00:12:42;;;;;;;1.25;0.25;;;;;;;12.43;45.80;102031.53;4991981;28;20145;-70
2022/06/16 00:15:11;;;;;;;1.45;0.30;;;;;;;12.52;45.32;102026.94;4989565;28;20025;-71
2022/06/16 00:17:38;;;;;;;1.58;0.30;;;;;;;12.55;45.35;102026.81;5008628;28;20069;-72
2022/06/16 00:20:07;;;;;;;1.67;0.28;;;;;;;12.52;44.93;102014.66;4991905;28;20131;-70
2022/06/16 00:22:34;;;;;;;2.08;0.38;;;;;;;12.45;45.43;101998.25;4991899;28;20042;-70
2022/06/16 00:24:59;;;;;;;2.75;0.50;;;;;;;12.40;45.81;102004.53;4991173;28;20033;-70
2022/06/16 00:27:25;;;;;;;2.67;0.40;;;;;;;12.46;45.47;102001.72;4990406;28;20038;-70
2022/06/16 00:29:50;;;;;;;3.40;0.70;;;;;;;12.46;45.89;102001.72;4990710;28;20038;-70
2022/06/16 00:32:16;;;;;;;0.88;0.30;;;;;;;12.40;46.01;101997.56;4991876;28;20045;-72
2022/06/16 00:34:42;;;;;;;1.92;0.50;;;;;;;12.49;45.65;101994.66;4991475;28;20042;-72
2022/06/16 00:37:07;;;;;;;3.55;0.30;;;;;;;12.54;45.51;101988.41;4992577;28;20125;-71
2022/06/16 00:39:33;;;;;;;0.52;0.30;;;;;;;12.51;45.87;101986.72;5005257;28;20483;-71
2022/06/16 00:42:31;;;;;;;1.30;0.47;;;;;;;12.64;45.62;101990.66;4990419;28;20042;-72
2022/06/16 00:44:57;;;;;;;1.73;0.32;;;;;;;12.57;45.42;101991.78;4952184;28;20045;-72
2022/06/16 00:47:25;;;;;;;1.10;0.20;;;;;;;12.56;45.53;101997.94;4991349;28;20139;-72
2022/06/16 00:49:55;;;;;;;3.83;0.55;;;;;;;12.60;45.42;102007.44;4991142;28;20034;-73
2022/06/16 00:52:28;;;;;;;2.08;0.35;;;;;;;12.60;45.25;102007.44;4993681;28;20046;-71
2022/06/16 00:55:04;;;;;;;1.10;0.20;;;;;;;12.61;45.47;102008.28;4991495;28;20515;-70
2022/06/16 00:57:45;;;;;;;1.10;0.30;;;;;;;12.48;45.73;102013.88;5012000;28;20136;-70
2022/06/16 01:00:36;;;;;;;1.70;0.40;;;;;;;12.46;46.02;102014.84;4990995;28;20026;-70
2022/06/16 01:03:01;;;;;;;2.30;0.30;;;;;;;12.40;46.12;102021.16;4990371;28;20038;-71
2022/06/16 01:05:27;;;;;;;0.77;0.30;;;;;;;12.27;46.33;102032.88;4991664;28;20083;-71
2022/06/16 01:07:56;;;;;;;0.77;0.20;;;;;;;12.33;46.63;102030.06;4989643;28;20194;-70
2022/06/16 01:10:32;;;;;;;3.20;0.20;;;;;;;12.35;46.33;102020.41;4992361;28;20030;-70
2022/06/16 01:16:29;;;;;;;1.10;0.50;;;;;;;12.32;46.76;102035.38;4994107;28;20029;-71
2022/06/16 01:19:07;;;;;;;2.30;0.30;;;;;;;12.31;46.90;102044.97;5002362;28;20050;-70
2022/06/16 01:21:44;;;;;;;2.05;0.30;;;;;;;12.23;46.44;102050.44;4992390;28;20046;-71
2022/06/16 01:24:40;;;;;;;2.17;0.43;;;;;;;12.01;46.98;102049.34;4996149;28;20054;-71
2022/06/16 01:27:17;;;;;;;4.75;0.77;;;;;;;11.83;47.52;102048.94;5010312;28;20109;-65
2022/06/16 01:30:04;;;;;;;2.33;0.65;;;;;;;11.75;47.69;102037.75;4991787;28;20034;-66
2022/06/16 01:32:41;;;;;;;1.10;0.63;;;;;;;11.61;47.98;102030.25;4991315;28;20061;-65
2022/06/16 01:35:13;;;;;;;2.47;0.60;;;;;;;11.59;48.20;102036.44;4993174;28;20477;-66
2022/06/16 01:38:19;;;;;;;2.20;0.50;;;;;;;11.57;48.20;102038.22;4990143;28;20054;-67
2022/06/16 01:40:56;;;;;;;2.55;0.95;;;;;;;11.45;48.28;102040.28;4932084;28;20594;-73
2022/06/16 01:43:34;;;;;;;4.18;1.10;;;;;;;11.38;48.78;102049.19;4947596;28;20221;-73
2022/06/16 01:46:16;;;;;;;3.50;0.75;;;;;;;11.36;48.56;102039.66;4976108;28;20042;-74
2022/06/16 01:48:46;;;;;;;2.33;1.23;;;;;;;11.25;48.66;102038.16;4989811;28;20458;-74
2022/06/16 01:51:26;;;;;;;3.15;1.05;;;;;;;11.17;48.93;102028.75;4994360;28;20037;-74
2022/06/16 01:54:13;;;;;;;4.22;0.60;;;;;;;11.11;49.27;102031.53;4992052;28;20171;-74
2022/06/16 01:57:00;;;;;;;4.15;1.15;;;;;;;11.21;49.35;102026.03;4989115;28;20034;-73
2022/06/16 02:00:04;;;;;;;1.52;0.88;;;;;;;11.33;48.68;102030.13;4991040;28;20058;-74
2022/06/16 02:02:34;;;;;;;0.93;0.43;;;;;;;11.30;48.58;102019.72;5010912;28;20037;-74
2022/06/16 02:05:15;;;;;;;2.03;0.57;;;;;;;11.21;48.88;102023.41;4987457;28;20034;-74
2022/06/16 02:07:52;;;;;;;2.40;0.77;;;;;;;11.28;49.06;102033.72;4991418;28;20125;-72
2022/06/16 02:10:30;;;;;;;3.38;1.15;;;;;;;11.24;49.22;102035.56;5007741;28;20506;-73
2022/06/16 02:13:04;;;;;;;3.08;1.00;;;;;;;11.19;49.08;102038.28;5008974;28;20531;-73
2022/06/16 02:15:43;;;;;;;3.42;0.55;;;;;;;11.11;49.55;102031.53;4988478;28;20050;-73
2022/06/16 02:18:13;;;;;;;2.65;0.98;;;;;;;11.19;49.53;102040.06;4987200;28;20053;-70
2022/06/16 02:20:59;;;;;;;2.38;0.85;;;;;;;11.29;49.68;102038.94;4989837;28;20037;-70
2022/06/16 02:23:24;;;;;;;3.15;0.93;;;;;;;11.34;49.82;102033.59;5003906;28;20173;-70
2022/06/16 02:25:54;;;;;;;1.58;0.70;;;;;;;11.51;49.77;102043.63;4993066;28;20120;-70
2022/06/16 02:28:20;;;;;;;4.10;0.90;;;;;;;11.58;49.49;102053.91;4990843;28;20144;-68
2022/06/16 02:31:00;;;;;;;8.18;1.10;;;;;;;11.59;49.53;102046.91;5002995;28;20041;-70
2022/06/16 02:33:35;;;;;;;2.03;0.90;;;;;;;11.66;49.23;102045.84;4989576;28;20081;-69
2022/06/16 02:36:18;;;;;;;4.68;1.00;;;;;;;11.58;49.24;102047.84;4987606;28;22282;-70
2022/06/16 02:38:50;;;;;;;2.55;0.80;;;;;;;11.52;49.21;102045.34;4988342;28;20103;-72
2022/06/16 02:41:43;;;;;;;3.58;0.77;;;;;;;11.44;49.27;102048.16;4991042;28;20034;-69
2022/06/16 02:44:26;;;;;;;3.80;0.90;;;;;;;11.51;49.28;102047.13;4967554;28;20105;-69
2022/06/16 02:47:02;;;;;;;6.57;0.73;;;;;;;11.52;49.32;102050.59;5009516;28;20112;-74
2022/06/16 02:49:37;;;;;;;3.95;0.98;;;;;;;11.56;49.63;102060.94;5005136;28;20049;-65
2022/06/16 02:52:27;;;;;;;8.55;1.10;;;;;;;11.63;49.14;102065.13;4988245;28;20036;-66
2022/06/16 02:55:03;;;;;;;2.60;0.80;;;;;;;11.69;48.96;102058.88;4987163;28;20038;-73
2022/06/16 02:57:46;;;;;;;3.88;0.90;;;;;;;11.69;49.01;102064.13;4990336;28;20125;-73
2022/06/16 03:00:19;;;;;;;2.78;1.00;;;;;;;11.67;49.64;102060.69;5006171;28;20026;-73
2022/06/16 03:02:45;;;;;;;2.85;0.90;;;;;;;11.67;48.89;102060.69;5000347;28;20077;-73
2022/06/16 03:05:13;;;;;;;2.88;1.27;;;;;;;11.63;48.90;102056.41;4990332;28;20037;-73
2022/06/16 03:07:41;;;;;;;1.65;0.90;;;;;;;11.43;49.27;102060.38;5002340;28;20438;-70
2022/06/16 03:13:08;;;;;;;2.70;0.70;;;;;;;11.28;49.90;102062.53;4991031;28;20142;-71
2022/06/16 03:15:33;;;;;;;2.88;0.93;;;;;;;11.19;49.80;102051.38;4994404;28;20029;-73
2022/06/16 03:17:59;;;;;;;3.97;1.13;;;;;;;11.14;49.78;102047.16;4993450;28;20073;-72
2022/06/16 03:20:24;;;;;;;3.58;0.60;;;;;;;11.05;49.94;102049.09;4998861;28;20073;-72
2022/06/16 03:22:50;;;;;;;2.55;0.93;;;;;;;11.14;49.73;102040.16;4989947;28;20035;-73
2022/06/16 03:25:16;;;;;;;2.60;0.75;;;;;;;11.14;49.81;102034.06;4993102;28;20054;-71
2022/06/16 03:27:42;;;;;;;3.97;0.88;;;;;;;11.23;49.40;102044.31;4993822;28;20120;-70
2022/06/16 03:30:10;;;;;;;4.35;1.08;;;;;;;11.19;49.44;102042.66;4994855;28;20125;-70
2022/06/16 03:32:35;;;;;;;3.78;1.30;;;;;;;11.33;49.03;102055.41;4992259;28;20100;-69
2022/06/16 03:35:01;;;;;;;1.88;0.70;;;;;;;11.29;49.29;102043.31;4988119;28;20025;-70
2022/06/16 03:37:28;;;;;;;1.63;0.70;;;;;;;11.22;49.48;102048.69;4993450;28;20414;-70
2022/06/16 03:39:59;;;;;;;2.20;1.40;;;;;;;11.28;49.27;102049.44;5005455;28;20443;-71
2022/06/16 03:42:25;;;;;;;5.88;1.98;;;;;;;11.26;49.45;102059.94;4991974;28;20566;-71
2022/06/16 03:44:51;;;;;;;2.42;1.50;;;;;;;11.18;50.10;102067.97;4991574;28;20112;-70
2022/06/16 03:47:17;;;;;;;2.58;1.20;;;;;;;11.19;49.81;102060.97;4991826;28;20037;-70
2022/06/16 03:49:43;;;;;;;6.00;1.75;;;;;;;11.27;50.06;102066.91;4979673;28;20030;-71
2022/06/16 03:52:09;;;;;;;5.28;1.80;;;;;;;11.29;50.01;102065.13;4990312;28;20040;-74
2022/06/16 03:54:44;;;;;;;4.35;2.20;;;;;;;11.34;49.77;102065.84;4992541;28;20187;-76
2022/06/16 03:57:12;;;;;;;2.25;1.25;;;;;;;11.43;50.00;102068.25;4993432;28;20034;-73
2022/06/16 03:59:38;;;;;;;3.08;1.58;;;;;;;11.56;50.17;102067.94;4997009;28;20479;-72
2022/06/16 04:02:19;;;;;;;3.83;1.60;;;;;;;11.68;50.39;102072.88;4993013;28;20053;-72
2022/06/16 04:04:45;;;;;;;2.92;1.45;;;;;;;11.85;50.22;102069.84;5006681;28;20030;-71
2022/06/16 04:07:11;;;;;;;5.70;2.05;;;;;;;11.98;49.86;102065.16;4995720;28;20348;-71
2022/06/16 04:09:51;;;;;;;6.45;2.08;;;;;;;12.11;49.75;102066.53;5006634;28;20045;-72
2022/06/16 04:12:16;;;;;;;6.18;2.75;;;;;;;12.26;49.46;102084.44;4991739;28;20041;-72
2022/06/16 04:14:42;;;;;;;4.28;1.85;;;;;;;12.36;49.47;102084.19;4991868;28;20034;-72
2022/06/16 04:17:10;;;;;;;8.68;2.72;;;;;;;12.39;49.00;102094.59;5005450;28;20038;-72
2022/06/16 04:22:42;;;;;;;6.38;2.22;;;;;;;12.53;48.82;102100.28;4990063;28;20064;-72
2022/06/16 04:25:16;;;;;;;3.15;2.10;;;;;;;12.57;48.88;102107.16;4993012;28;20545;-73
2022/06/16 04:27:43;;;;;;;3.30;1.67;;;;;;;12.63;48.82;102103.53;5004490;28;20096;-73
2022/06/16 04:30:11;;;;;;;2.38;1.65;;;;;;;12.69;48.58;102106.84;5007285;28;20033;-73
2022/06/16 04:32:37;;;;;;;2.95;1.65;;;;;;;12.88;48.89;102111.56;5005487;28;20124;-72
2022/06/16 04:35:06;;;;;;;4.65;1.58;;;;;;;12.95;48.51;102113.06;5008204;28;20146;-72
2022/06/16 04:37:44;;;;;;;2.40;1.33;;;;;;;13.19;48.55;102113.25;5005549;28;20546;-71
2022/06/16 04:40:11;;;;;;;4.18;2.33;;;;;;;13.31;47.98;102116.31;4994253;28;20030;-70
2022/06/16 04:42:37;;;;;;;5.55;1.75;;;;;;;13.51;47.65;102113.03;5007749;28;20058;-73
2022/06/16 04:45:04;;;;;;;7.07;1.50;;;;;;;13.61;47.30;102113.66;4995927;28;20030;-70
2022/06/16 04:47:30;;;;;;;5.72;1.50;;;;;;;13.62;46.56;102114.50;5006849;28;20186;-70
2022/06/16 04:49:56;;;;;;;7.60;1.67;;;;;;;13.90;45.79;102110.03;4990698;28;20062;-72
2022/06/16 04:52:22;;;;;;;4.90;1.50;;;;;;;14.14;44.97;102123.22;5007005;28;20571;-73
2022/06/16 04:54:51;;;;;;;4.13;1.33;;;;;;;14.23;44.48;102128.19;4997439;28;20049;-71
2022/06/16 04:57:49;;;;;;;2.60;1.42;;;;;;;14.27;44.41;102135.03;4976757;28;20081;-69
2022/06/16 05:00:48;;;;;;;2.17;1.15;;;;;;;14.39;44.01;102128.47;4951301;28;20034;-73
2022/06/16 05:03:21;;;;;;;1.88;0.80;;;;;;;14.50;44.12;102130.72;4991506;28;20133;-68
2022/06/16 05:06:06;;;;;;;4.22;1.50;;;;;;;14.75;43.46;102126.28;4991279;28;20111;-70
2022/06/16 05:08:50;;;;;;;3.55;0.70;;;;;;;15.80;42.35;102133.53;4994706;28;20410;-70
2022/06/16 05:11:34;;;;;;;4.50;0.80;;;;;;;18.23;37.29;102118.66;4994413;28;20898;-69
2022/06/16 05:14:35;;;;;;;2.50;0.40;;;;;;;20.97;32.58;102121.25;4916722;29;20049;-71
2022/06/16 05:17:09;;;;;;;4.45;0.93;;;;;;;22.78;30.82;102114.19;4982340;28;20527;-72
2022/06/16 05:19:53;;;;;;;1.35;0.43;;;;;;;24.00;26.45;102111.31;4991869;28;20113;-71
2022/06/16 05:22:46;;;;;;;2.45;0.57;;;;;;;24.33;26.32;102105.13;5005966;28;20047;-71
2022/06/16 05:25:44;;;;;;;3.30;0.43;;;;;;;24.50;25.52;102114.47;4963270;28;20045;-72
2022/06/16 05:28:27;;;;;;;1.90;0.40;;;;;;;24.13;25.33;102108.53;4991735;28;20060;-72
2022/06/16 05:31:12;;;;;;;2.65;0.50;;;;;;;24.21;25.95;102111.44;4991831;28;20709;-71
2022/06/16 05:33:55;;;;;;;1.08;0.30;;;;;;;24.33;25.71;102117.63;4989388;28;20042;-71
2022/06/16 05:36:39;;;;;;;4.93;0.20;;;;;;;24.35;25.25;102131.72;4992741;28;20044;-70
2022/06/16 05:39:27;;;;;;;1.30;0.60;;;;;;;25.25;24.95;102126.22;5004657;28;20104;-70
2022/06/16 05:42:21;;;;;;;2.38;0.30;;;;;;;25.19;24.49;102137.44;4986423;28;20555;-74
2022/06/16 05:44:55;;;;;;;1.05;0.28;;;;;;;25.59;24.06;102136.78;4991276;28;20041;-71
2022/06/16 05:47:36;;;;;;;3.25;0.43;;;;;;;25.47;23.10;102141.34;5005401;28;20037;-71
2022/06/16 05:50:03;;;;;;;4.70;0.47;;;;;;;25.57;23.68;102149.44;4993888;28;20049;-71
2022/06/16 05:52:37;;;;;;;1.38;0.40;;;;;;;26.03;23.82;102145.53;5021965;28;21012;-72
2022/06/16 05:55:14;;;;;;;1.70;0.30;;;;;;;25.98;22.52;102148.59;5004249;28;20089;-72
2022/06/16 05:57:39;;;;;;;0.70;0.40;;;;;;;25.44;23.16;102139.75;4978976;28;20075;-70
2022/06/16 06:00:10;;;;;;;5.20;0.20;;;;;;;23.70;24.47;102142.06;4989130;28;20037;-71
2022/06/16 06:02:39;;;;;;;0.93;0.10;;;;;;;23.82;24.02;102143.78;4987714;28;20057;-72
2022/06/16 06:05:11;;;;;;;3.53;0.20;;;;;;;24.89;23.29;102141.63;4986538;28;20040;-71
2022/06/16 06:18:40;;;;;;;1.20;0.10;;;;;;;22.83;25.82;102175.16;4981351;28;20077;-70
2022/06/16 06:21:05;;;;;;;1.40;0.10;;;;;;;20.96;27.29;102173.56;4997893;28;20030;-71
2022/06/16 06:23:31;;;;;;;1.20;0.38;;;;;;;19.70;28.57;102176.75;5014604;28;20049;-71
2022/06/16 06:25:58;;;;;;;1.05;0.17;;;;;;;18.49;30.49;102180.78;4975930;28;20048;-73
2022/06/16 06:28:24;;;;;;;3.75;0.40;;;;;;;18.20;30.75;102180.50;4979142;28;20086;-73
2022/06/16 06:30:50;;;;;;;2.92;0.50;;;;;;;18.18;30.11;102192.06;4967331;28;20133;-71
2022/06/16 06:33:15;;;;;;;0.88;0.30;;;;;;;17.75;31.83;102195.09;4971681;28;20118;-71
2022/06/16 06:35:43;;;;;;;3.17;0.50;;;;;;;17.89;31.16;102191.75;4981589;28;20500;-72
2022/06/16 06:38:09;;;;;;;1.80;0.25;;;;;;;17.77;30.94;102189.75;4977668;28;20090;-73
2022/06/16 06:40:37;;;;;;;1.48;0.10;;;;;;;17.69;31.44;102197.19;4982016;28;20145;-73
2022/06/16 06:43:03;;;;;;;1.65;0.20;;;;;;;17.86;31.22;102199.88;4978563;28;20058;-71
2022/06/16 06:45:29;;;;;;;3.38;0.45;;;;;;;17.35;32.42;102206.72;4985804;28;20042;-72
2022/06/16 06:47:55;;;;;;;1.45;0.20;;;;;;;17.45;32.16;102197.44;4982947;28;20052;-72
2022/06/16 06:50:29;;;;;;;0.60;0.13;;;;;;;17.58;31.95;102203.88;4987296;28;20180;-72
2022/06/16 06:52:55;;;;;;;2.47;0.10;;;;;;;17.53;32.51;102211.16;4981672;28;20582;-71
2022/06/16 06:55:22;;;;;;;1.77;0.13;;;;;;;17.53;32.42;102211.16;4984529;28;20044;-70
2022/06/16 06:57:52;;;;;;;1.58;0.35;;;;;;;17.53;32.10;102211.16;4980696;28;20133;-72
2022/06/16 07:00:20;;;;;;;2.90;0.30;;;;;;;17.55;31.82;102209.31;4992021;28;20045;-74
2022/06/16 07:02:45;;;;;;;1.80;0.13;;;;;;;17.79;31.94;102206.41;4975004;28;20050;-74
2022/06/16 07:05:11;;;;;;;7.00;0.65;;;;;;;18.75;30.45;102200.56;4971556;28;20252;-75
2022/06/16 07:07:38;;;;;;;0.70;0.10;;;;;;;19.84;29.31;102199.81;4973568;28;20045;-76
2022/06/16 07:10:06;;;;;;;2.00;0.25;;;;;;;21.25;27.25;102195.59;4978350;28;20031;-75
2022/06/16 07:12:32;;;;;;;4.90;0.28;;;;;;;22.19;25.52;102194.72;4970499;28;20055;-75
2022/06/16 07:14:58;;;;;;;0.73;0.10;;;;;;;22.44;24.83;102196.53;4956169;28;20989;-77
2022/06/16 07:17:24;;;;;;;1.10;0.40;;;;;;;22.18;24.43;102191.22;4973849;28;20107;-75
2022/06/16 07:19:51;;;;;;;1.77;0.20;;;;;;;22.82;24.10;102194.81;5007074;28;20113;-76
2022/06/16 07:22:17;;;;;;;5.28;0.20;;;;;;;24.49;22.43;102189.44;4964407;28;20041;-74
2022/06/16 07:24:42;;;;;;;2.92;0.10;;;;;;;25.70;20.57;102190.28;4988789;28;21004;-75
2022/06/16 07:27:09;;;;;;;1.13;0.50;;;;;;;26.22;20.59;102188.53;4972058;28;20051;-75
2022/06/16 07:29:35;;;;;;;2.13;0.10;;;;;;;27.70;18.70;102180.69;4970946;28;20582;-75
2022/06/16 07:32:01;;;;;;;0.70;0.10;;;;;;;27.74;18.25;102192.81;4973285;28;20070;-75
2022/06/16 07:34:27;;;;;;;7.03;0.40;;;;;;;26.67;18.64;102193.53;4971813;28;20478;-74
2022/06/16 07:36:53;;;;;;;5.32;0.22;;;;;;;24.35;21.51;102194.03;4986681;28;20042;-75
2022/06/16 07:39:19;;;;;;;0.50;0.20;;;;;;;23.24;22.32;102188.16;4972865;28;20042;-75
2022/06/16 07:41:44;;;;;;;1.65;0.20;;;;;;;25.52;19.61;102189.16;4970956;28;20031;-75
2022/06/16 07:44:13;;;;;;;0.93;0.28;;;;;;;27.17;18.84;102189.16;4967763;28;20310;-75
2022/06/16 07:46:42;;;;;;;4.35;0.32;;;;;;;27.60;18.23;102191.38;4969331;28;20054;-76
2022/06/16 07:49:11;;;;;;;1.60;0.10;;;;;;;28.52;16.41;102185.41;4971455;28;20126;-75
2022/06/16 07:51:37;;;;;;;2.30;0.20;;;;;;;28.33;16.58;102189.03;4970012;28;20125;-76
2022/06/16 07:54:03;;;;;;;1.45;0.30;;;;;;;27.37;18.39;102196.22;4968265;28;20050;-75
2022/06/16 07:56:28;;;;;;;2.05;0.10;;;;;;;27.46;17.99;102198.03;4971092;28;20534;-75
2022/06/16 07:58:54;;;;;;;5.15;0.88;;;;;;;28.58;17.36;102200.09;4970110;28;20073;-74
2022/06/16 08:01:19;;;;;;;1.33;0.20;;;;;;;29.25;16.46;102199.88;4969890;28;20037;-76
2022/06/16 08:03:46;;;;;;;2.28;0.25;;;;;;;28.12;17.33;102204.50;4971007;28;20055;-75
2022/06/16 08:06:15;;;;;;;1.60;0.28;;;;;;;28.23;18.29;102215.06;4971664;28;20042;-75
2022/06/16 08:08:41;;;;;;;2.30;0.40;;;;;;;27.78;17.46;102212.19;4970728;28;20108;-76
2022/06/16 08:12:03;;;;;;;1.42;0.20;;;;;;;28.00;18.04;102224.47;4967849;28;20547;-75
2022/06/16 08:13:53;;;;;;;1.10;0.13;;;;;;;28.37;17.38;102218.28;4967287;28;20061;-75
2022/06/16 08:16:18;;;;;;;2.47;0.55;;;;;;;28.26;17.07;102219.34;4970809;28;20038;-76
2022/06/16 08:18:43;;;;;;;3.25;0.40;;;;;;;28.90;16.82;102212.25;4968185;28;20409;-76
2022/06/16 08:21:09;;;;;;;1.42;0.10;;;;;;;28.05;18.25;102220.31;4983494;28;20539;-75
2022/06/16 08:23:34;;;;;;;2.33;0.10;;;;;;;28.82;17.04;102214.88;4967659;28;20065;-76
2022/06/16 08:26:00;;;;;;;1.50;0.20;;;;;;;28.30;17.58;102215.34;4969364;28;20038;-75
2022/06/16 08:28:25;;;;;;;3.95;0.10;;;;;;;28.84;17.80;102210.19;4969868;28;20092;-75
2022/06/16 08:30:51;;;;;;;2.05;0.22;;;;;;;29.57;17.24;102202.84;4965424;28;20038;-75
2022/06/16 08:33:18;;;;;;;2.17;0.63;;;;;;;29.92;17.10;102209.19;4984282;28;20061;-75
2022/06/16 08:35:46;;;;;;;2.95;0.20;;;;;;;29.94;16.07;102196.41;4969529;28;20038;-74
2022/06/16 08:38:12;;;;;;;3.47;0.35;;;;;;;29.41;15.88;102194.63;4966397;28;20046;-75
2022/06/16 08:40:46;;;;;;;1.10;0.10;;;;;;;29.32;16.13;102201.78;4968623;28;20034;-75
2022/06/16 08:43:28;;;;;;;0.82;0.10;;;;;;;29.06;15.50;102196.31;4967885;28;20057;-74
2022/06/16 08:45:58;;;;;;;1.15;0.17;;;;;;;28.96;15.22;102201.72;4967649;28;20042;-73
2022/06/16 08:48:26;;;;;;;1.88;0.10;;;;;;;30.16;14.98;102205.00;4974264;28;20583;-73
2022/06/16 08:51:08;;;;;;;1.60;0.10;;;;;;;30.69;15.11;102201.22;4970422;28;20046;-74
2022/06/16 08:53:48;;;;;;;2.95;0.10;;;;;;;31.10;13.71;102209.44;4965760;28;20622;-74
2022/06/16 08:56:35;;;;;;;1.50;0.10;;;;;;;30.59;15.16;102206.75;4970361;28;20069;-75
2022/06/16 08:59:21;;;;;;;1.95;0.10;;;;;;;31.42;13.27;102208.59;4967762;28;20423;-74
2022/06/16 09:02:03;;;;;;;1.00;0.10;;;;;;;30.38;13.90;102204.44;4966078;28;20030;-75
2022/06/16 09:04:39;;;;;;;1.77;0.10;;;;;;;30.37;14.66;102210.81;4967655;28;20061;-75
2022/06/16 09:07:29;;;;;;;0.85;0.10;;;;;;;30.14;14.92;102210.53;4967237;28;20514;-75
2022/06/16 09:10:23;;;;;;;2.90;0.10;;;;;;;30.63;14.64;102209.13;4955077;28;20405;-74
2022/06/16 09:13:22;;;;;;;1.60;0.20;;;;;;;30.63;14.76;102212.66;4972272;28;20051;-73
2022/06/16 09:16:22;;;;;;;0.70;0.15;;;;;;;30.93;14.54;102231.97;5001372;28;20125;-72
2022/06/16 09:19:06;;;;;;;0.95;0.10;;;;;;;29.57;15.59;102220.84;4967254;28;20041;-73
2022/06/16 09:21:41;;;;;;;0.82;0.10;;;;;;;29.72;14.87;102224.72;4971223;28;20038;-71
2022/06/16 09:24:30;;;;;;;1.27;0.20;;;;;;;28.66;15.84;102224.44;4983657;28;20031;-71
2022/06/16 09:27:08;;;;;;;0.55;0.10;;;;;;;28.40;16.83;102220.69;4967267;28;20035;-72
2022/06/16 09:29:49;;;;;;;0.73;0.13;;;;;;;28.30;17.06;102229.66;4985841;28;20254;-71
2022/06/16 09:32:36;;;;;;;0.32;0.20;;;;;;;27.64;16.88;102238.50;4972006;28;20458;-75
2022/06/16 09:35:07;;;;;;;0.95;0.17;;;;;;;27.29;17.23;102231.78;4970589;28;20286;-73
2022/06/16 09:37:36;;;;;;;;;;;;;;;27.96;18.16;102231.94;4970940;28;20042;-74
2022/06/16 09:40:10;;;;;;;3.47;0.20;;;;;;;27.69;18.71;102230.00;4971674;28;19998;-74
2022/06/16 09:42:42;;;;;;;2.17;0.13;;;;;;;25.51;20.47;102235.59;4975023;28;20081;-74
2022/06/16 09:45:17;;;;;;;3.35;0.15;;;;;;;25.81;20.51;102227.69;4968709;28;20030;-74
2022/06/16 09:47:48;;;;;;;1.20;0.10;;;;;;;25.64;19.78;102236.28;4968759;28;20058;-73
2022/06/16 09:50:31;;;;;;;1.45;0.20;;;;;;;25.40;20.57;102233.81;4973789;28;20031;-73
2022/06/16 09:53:11;;;;;;;3.92;0.20;;;;;;;24.60;20.71;102235.72;4969723;28;20089;-74
2022/06/16 09:55:46;;;;;;;2.95;0.28;;;;;;;24.39;20.79;102240.03;4971410;28;20272;-74
2022/06/16 09:58:30;;;;;;;1.33;0.10;;;;;;;23.81;21.78;102246.19;4968376;28;20109;-74
2022/06/16 10:01:02;;;;;;;2.17;0.20;;;;;;;23.85;22.82;102248.63;4984906;28;20058;-74
2022/06/16 10:03:33;;;;;;;2.60;0.20;;;;;;;23.68;21.99;102258.75;4968805;28;20247;-73
2022/06/16 10:06:01;;;;;;;;;;;;;;;23.72;21.99;102254.91;4969429;28;20080;-74
2022/06/16 10:08:45;;;;;;;2.28;0.20;;;;;;;23.26;22.55;102258.25;4968168;28;19928;-73
2022/06/16 10:11:32;;;;;;;1.90;0.20;;;;;;;23.04;23.44;102258.09;4970372;28;20038;-73
2022/06/16 10:14:15;;;;;;;0.70;0.10;;;;;;;23.65;22.50;102258.13;4971732;28;20058;-72
2022/06/16 10:17:05;;;;;;;1.15;0.10;;;;;;;23.87;22.98;102255.56;4975418;28;20026;-72
2022/06/16 10:19:38;;;;;;;0.57;0.40;;;;;;;23.88;23.24;102259.09;5003645;28;20057;-72
2022/06/16 10:22:05;;;;;;;1.70;0.20;;;;;;;23.86;24.22;102256.56;4970077;28;20041;-73
2022/06/16 10:24:42;;;;;;;1.02;0.10;;;;;;;23.93;22.08;102256.94;4971554;28;20035;-72
2022/06/16 10:27:10;;;;;;;3.50;0.30;;;;;;;23.17;22.56;102259.75;4967840;28;20038;-72
2022/06/16 10:29:36;;;;;;;0.88;0.10;;;;;;;23.50;22.53;102255.63;4967927;28;20322;-73
2022/06/16 10:32:03;;;;;;;1.42;0.17;;;;;;;24.00;22.40;102260.84;4969344;28;20030;-73
2022/06/16 10:34:36;;;;;;;1.38;0.32;;;;;;;23.81;22.60;102274.69;4970619;28;20048;-74
2022/06/16 10:37:23;;;;;;;1.92;0.20;;;;;;;24.58;22.55;102264.38;4977883;28;20100;-72
2022/06/16 10:39:55;;;;;;;1.50;0.20;;;;;;;23.92;23.17;102282.78;4971995;28;20039;-73
2022/06/16 10:42:29;;;;;;;0.77;0.10;;;;;;;24.15;21.31;102280.22;4972650;28;20053;-73
2022/06/16 10:45:05;;;;;;;0.90;0.20;;;;;;;23.79;21.68;102284.66;4989483;28;20348;-73
2022/06/16 10:47:52;;;;;;;0.65;0.10;;;;;;;24.20;22.31;102281.53;4972730;28;20133;-72
2022/06/16 10:50:25;;;;;;;1.08;0.10;;;;;;;23.41;21.17;102278.50;4971618;28;20053;-72
2022/06/16 10:53:00;;;;;;;3.60;0.20;;;;;;;23.92;21.49;102287.25;4971313;28;20089;-73
2022/06/16 10:55:34;;;;;;;1.50;0.20;;;;;;;24.39;20.62;102286.34;4971819;28;20088;-72
2022/06/16 10:58:15;;;;;;;1.60;0.10;;;;;;;23.79;20.98;102285.50;4969975;28;20042;-73
2022/06/16 11:00:41;;;;;;;0.63;0.20;;;;;;;24.12;20.74;102293.78;4984669;28;20073;-73
2022/06/16 11:03:10;;;;;;;0.70;0.10;;;;;;;23.96;22.10;102296.75;4970495;28;20097;-72
2022/06/16 11:06:06;;;;;;;2.35;0.40;;;;;;;23.55;22.28;102289.97;4971851;28;20633;-73
2022/06/16 11:08:36;;;;;;;2.65;0.20;;;;;;;24.24;19.97;102282.16;4965045;28;20143;-72
2022/06/16 11:11:03;;;;;;;1.75;0.43;;;;;;;24.30;21.05;102294.19;4985150;28;20336;-72
2022/06/16 11:13:36;;;;;;;2.35;0.40;;;;;;;24.05;21.69;102288.03;4970549;28;20295;-73
2022/06/16 11:16:13;;;;;;;0.90;0.20;;;;;;;24.34;20.01;102292.97;5000059;28;20042;-73
2022/06/16 11:18:39;;;;;;;1.58;0.20;;;;;;;24.60;20.50;102286.50;4971747;28;20523;-72
2022/06/16 11:21:20;;;;;;;0.70;0.20;;;;;;;24.34;20.83;102295.66;4970189;28;20061;-72
2022/06/16 11:23:54;;;;;;;1.20;0.20;;;;;;;24.40;21.20;102293.38;4982598;28;20047;-73
2022/06/16 11:26:24;;;;;;;1.63;0.10;;;;;;;24.00;22.02;102300.91;4971090;28;20033;-72
2022/06/16 11:29:01;;;;;;;2.13;0.10;;;;;;;24.42;20.89;102301.31;4958119;28;20053;-72
2022/06/16 11:31:48;;;;;;;2.78;0.30;;;;;;;24.88;21.02;102294.16;4970408;28;20754;-72
2022/06/16 11:34:29;;;;;;;2.58;0.35;;;;;;;24.88;20.37;102303.03;4975456;28;20042;-73
2022/06/16 11:37:17;;;;;;;1.88;0.20;;;;;;;25.25;21.37;102305.47;4976033;28;20035;-73
2022/06/16 11:40:21;;;;;;;2.97;0.30;;;;;;;24.59;21.76;102308.88;4970360;28;20050;-73
2022/06/16 11:43:14;;;;;;;2.17;0.40;;;;;;;23.78;21.10;102310.47;4968786;28;20116;-73
2022/06/16 11:46:06;;;;;;;2.60;0.82;;;;;;;24.27;21.50;102313.97;4999283;28;20067;-72
2022/06/16 11:49:14;;;;;;;1.15;0.68;;;;;;;23.92;22.10;102311.28;5002047;28;20587;-72
2022/06/16 11:51:56;;;;;;;0.70;0.20;;;;;;;24.22;21.84;102321.50;4976064;28;20090;-72
2022/06/16 11:54:32;;;;;;;2.78;0.20;;;;;;;24.12;21.59;102320.47;4971146;28;20124;-72
2022/06/16 11:57:04;;;;;;;1.50;0.20;;;;;;;24.08;22.67;102325.22;4970124;28;20046;-72
2022/06/16 11:59:47;;;;;;;2.20;0.38;;;;;;;24.31;21.95;102318.13;4969287;28;20046;-73
2022/06/16 12:02:45;;;;;;;1.95;0.32;;;;;;;24.47;21.92;102320.50;4967574;28;20040;-72
2022/06/16 12:05:36;;;;;;;2.22;0.28;;;;;;;24.22;22.99;102313.47;4972568;28;20039;-71
2022/06/16 12:08:15;;;;;;;1.17;0.43;;;;;;;24.15;22.44;102322.94;4967033;28;20062;-73
2022/06/16 12:10:46;;;;;;;1.80;0.30;;;;;;;24.35;21.67;102321.41;4966063;28;20044;-72
2022/06/16 12:13:24;;;;;;;2.40;0.20;;;;;;;24.42;22.68;102322.69;4962014;28;20048;-72
2022/06/16 12:16:02;;;;;;;0.95;0.32;;;;;;;24.08;23.90;102335.91;4969260;28;20037;-73
2022/06/16 12:18:30;;;;;;;2.63;0.22;;;;;;;24.00;24.03;102338.28;4973883;28;20492;-73